< < Back
Terminal Aerodrome Forecast


Current Version              Previous Versions:   1  2  3  4  5  6  7  8  9  

Terminal Aerodrome Forecast

505
FTUS44 KHUN 030520
TAFHSV
TAF
KHSV 030520Z 0306/0406 05005KT P6SM OVC015
     FM030900 12005KT P6SM VCSH OVC015
     FM031200 14005KT 5SM -RA BR OVC009
     FM031800 18010KT 5SM -SHRA BR OVC015
      TEMPO 0322/0402 5SM -TSRA BR BKN009CB
     FM040200 19010KT 5SM -SHRA BR OVC015=



Latest METAR

193
SAUS80 KWBC 031800
MTRHSV
METAR KHSV 031753Z 13005KT 3SM BR OVC004 14/12 A3011 RMK AO2 SFC VIS 6
SLP194 T01390117 10139 20100 58014


USA.gov is the U.S. government's official web portal to all federal, state and local government web resources and services.